createdAt,value
2018-02-24T00:01:41.002Z,48.33
2018-02-24T00:04:08.663Z,48.41
2018-02-24T00:06:36.172Z,47.72
2018-02-24T00:09:04.210Z,48.48
2018-02-24T00:11:31.726Z,48.23
2018-02-24T00:13:59.285Z,48.16
2018-02-24T00:16:26.798Z,47.97
2018-02-24T00:18:54.321Z,47.47
2018-02-24T00:21:21.862Z,48.25
2018-02-24T00:23:49.385Z,48.19
2018-02-24T00:26:16.938Z,47.50
2018-02-24T00:28:44.449Z,48.29
2018-02-24T00:31:11.969Z,48.07
2018-02-24T00:33:39.518Z,48.27
2018-02-24T00:36:07.029Z,47.95
2018-02-24T00:38:34.582Z,48.00
2018-02-24T00:41:02.122Z,47.40
2018-02-24T00:43:29.647Z,47.63
2018-02-24T00:45:57.199Z,47.95
2018-02-24T00:48:24.725Z,47.85
2018-02-24T00:50:52.460Z,48.05
2018-02-24T00:53:19.990Z,48.20
2018-02-24T00:55:47.505Z,48.25
2018-02-24T00:58:15.189Z,47.98
2018-02-24T01:00:42.706Z,47.51
2018-02-24T01:03:10.266Z,47.65
2018-02-24T01:05:37.828Z,47.68
2018-02-24T01:08:05.314Z,47.58
2018-02-24T01:10:32.883Z,47.73
2018-02-24T01:13:00.402Z,47.52
2018-02-24T01:15:28.077Z,47.42
2018-02-24T01:17:55.594Z,47.67
2018-02-24T01:20:23.114Z,47.75
2018-02-24T01:22:50.658Z,47.72
2018-02-24T01:25:18.172Z,47.24
2018-02-24T01:27:45.722Z,47.84
2018-02-24T01:30:13.242Z,47.31
2018-02-24T01:32:40.758Z,47.17
2018-02-24T01:35:08.306Z,47.36
2018-02-24T01:37:35.826Z,47.90
2018-02-24T01:40:03.378Z,48.94
2018-02-24T01:42:30.900Z,49.23
2018-02-24T01:44:58.488Z,48.72
2018-02-24T01:47:26.038Z,49.21
2018-02-24T01:49:53.573Z,49.92
2018-02-24T01:52:21.278Z,49.25
2018-02-24T01:54:48.790Z,49.64
2018-02-24T01:57:16.309Z,49.65
2018-02-24T01:59:43.855Z,49.92
2018-02-24T02:02:11.381Z,50.34
2018-02-24T02:04:39.058Z,50.56
2018-02-24T02:07:06.631Z,50.30
2018-02-24T02:09:34.150Z,50.14
2018-02-24T02:12:01.693Z,50.22
2018-02-24T02:14:29.219Z,50.12
2018-02-24T02:16:56.771Z,50.50
2018-02-24T02:19:24.291Z,50.22
2018-02-24T02:21:51.821Z,50.64
2018-02-24T02:24:19.393Z,50.45
2018-02-24T02:26:46.921Z,50.26
2018-02-24T02:29:14.882Z,50.54
2018-02-24T02:31:42.404Z,50.44
2018-02-24T02:34:09.929Z,49.86
2018-02-24T02:36:37.475Z,50.05
2018-02-24T02:39:05.006Z,50.39
2018-02-24T02:41:32.650Z,50.31
2018-02-24T02:44:00.174Z,50.48
2018-02-24T02:46:27.695Z,49.81
2018-02-24T02:48:55.247Z,49.69
2018-02-24T02:51:22.767Z,50.58
2018-02-24T02:53:50.411Z,50.45
2018-02-24T02:56:17.923Z,50.45
2018-02-24T02:58:45.439Z,50.80
2018-02-24T03:01:12.985Z,51.00
2018-02-24T03:03:40.502Z,50.90
2018-02-24T03:06:08.075Z,51.04
2018-02-24T03:08:35.593Z,51.16
2018-02-24T03:11:03.113Z,51.29
2018-02-24T03:13:30.658Z,50.99
2018-02-24T03:15:58.177Z,51.28
2018-02-24T03:18:25.734Z,51.44
2018-02-24T03:20:53.251Z,51.54
2018-02-24T03:23:20.766Z,51.36
2018-02-24T03:25:48.307Z,51.69
2018-02-24T03:28:15.825Z,51.42
2018-02-24T03:30:43.628Z,51.75
2018-02-24T03:33:11.158Z,51.89
2018-02-24T03:35:38.686Z,52.39
2018-02-24T03:38:06.240Z,52.29
2018-02-24T03:40:33.761Z,52.44
2018-02-24T03:43:01.330Z,52.71
2018-02-24T03:45:28.855Z,53.65
2018-02-24T03:47:56.373Z,53.90
2018-02-24T03:50:23.929Z,53.24
2018-02-24T03:52:51.450Z,52.79
2018-02-24T03:55:19.022Z,52.56
2018-02-24T03:57:46.649Z,53.15
2018-02-24T04:00:14.169Z,53.41
2018-02-24T04:02:41.721Z,53.25
2018-02-24T04:05:09.280Z,53.54
2018-02-24T04:07:36.837Z,53.76
2018-02-24T04:10:04.364Z,53.23
2018-02-24T04:12:31.883Z,53.40
2018-02-24T04:14:59.447Z,52.97
2018-02-24T04:17:26.967Z,53.24
2018-02-24T04:19:54.914Z,53.13
2018-02-24T04:22:22.453Z,53.45
2018-02-24T04:24:49.978Z,53.53
2018-02-24T04:27:17.521Z,53.43
2018-02-24T04:29:45.063Z,53.19
2018-02-24T04:32:12.610Z,53.76
2018-02-24T04:34:40.122Z,53.95
2018-02-24T04:37:07.648Z,53.65
2018-02-24T04:39:35.192Z,53.38
2018-02-24T04:42:02.718Z,53.19
2018-02-24T04:44:30.340Z,54.00
2018-02-24T04:46:57.842Z,53.74
2018-02-24T04:49:25.397Z,54.07
2018-02-24T04:51:52.929Z,53.76
2018-02-24T04:54:20.487Z,53.93
2018-02-24T04:56:48.058Z,54.29
2018-02-24T04:59:15.578Z,55.12
2018-02-24T05:01:43.103Z,54.65
2018-02-24T05:04:10.653Z,55.39
2018-02-24T05:06:38.176Z,55.38
2018-02-24T05:09:05.897Z,55.64
2018-02-24T05:11:33.417Z,55.80
2018-02-24T05:14:00.937Z,56.23
2018-02-24T05:16:28.673Z,56.25
2018-02-24T05:18:56.210Z,55.99
2018-02-24T05:21:24.104Z,56.27
2018-02-24T05:23:51.621Z,56.00
2018-02-24T05:26:19.139Z,56.06
2018-02-24T05:28:46.691Z,56.57
2018-02-24T05:31:14.205Z,56.74
2018-02-24T05:33:41.779Z,56.54
2018-02-24T05:36:09.390Z,56.67
2018-02-24T05:38:36.912Z,56.72
2018-02-24T05:41:04.469Z,56.28
2018-02-24T05:43:31.990Z,56.45
2018-02-24T05:45:59.697Z,56.32
2018-02-24T05:48:27.221Z,55.90
2018-02-24T05:50:54.743Z,55.82
2018-02-24T05:53:22.290Z,55.42
2018-02-24T05:55:49.814Z,56.18
2018-02-24T05:58:17.597Z,56.68
2018-02-24T06:00:45.126Z,56.44
2018-02-24T06:03:12.675Z,56.71
2018-02-24T06:05:40.229Z,56.59
2018-02-24T06:08:07.756Z,56.42
2018-02-24T06:10:35.413Z,56.96
2018-02-24T06:13:02.959Z,57.40
2018-02-24T06:15:30.650Z,56.78
2018-02-24T06:17:58.194Z,56.77
2018-02-24T06:20:25.801Z,56.85
2018-02-24T06:22:53.366Z,57.32
2018-02-24T06:25:20.904Z,57.54
2018-02-24T06:27:48.430Z,57.01
2018-02-24T06:30:15.993Z,57.04
2018-02-24T06:32:43.508Z,57.43
2018-02-24T06:35:11.054Z,57.91
2018-02-24T06:37:38.577Z,57.86
2018-02-24T06:40:06.111Z,57.53
2018-02-24T06:42:33.670Z,57.73
2018-02-24T06:45:01.205Z,57.55
2018-02-24T06:47:28.885Z,57.39
2018-02-24T06:49:56.418Z,57.41
2018-02-24T06:52:23.961Z,56.71
2018-02-24T06:54:51.510Z,57.07
2018-02-24T06:57:19.050Z,56.69
2018-02-24T06:59:47.928Z,56.85
2018-02-24T07:02:15.440Z,56.26
2018-02-24T07:04:42.967Z,56.28
2018-02-24T07:07:10.517Z,55.08
2018-02-24T07:09:38.985Z,56.16
2018-02-24T07:12:07.977Z,56.13
2018-02-24T07:14:36.458Z,55.51
2018-02-24T07:17:04.008Z,56.17
2018-02-24T07:19:31.575Z,55.55
2018-02-24T07:21:59.106Z,55.48
2018-02-24T07:24:27.025Z,55.80
2018-02-24T07:26:54.566Z,55.55
2018-02-24T07:29:23.044Z,54.74
2018-02-24T07:31:50.591Z,55.03
2018-02-24T07:34:18.117Z,54.33
2018-02-24T07:36:45.662Z,54.08
2018-02-24T07:39:13.191Z,54.91
2018-02-24T07:41:41.658Z,54.10
2018-02-24T07:44:09.202Z,54.61
2018-02-24T07:46:37.697Z,54.11
2018-02-24T07:49:05.246Z,53.37
2018-02-24T07:51:32.765Z,53.17
2018-02-24T07:54:01.292Z,52.75
2018-02-24T07:56:28.839Z,53.21
2018-02-24T07:58:56.361Z,52.94
2018-02-24T08:01:24.178Z,52.76
2018-02-24T08:03:51.713Z,52.32
2018-02-24T08:06:19.234Z,51.87
2018-02-24T08:08:46.798Z,52.66
2018-02-24T08:11:14.326Z,51.33
2018-02-24T08:13:42.060Z,51.14
2018-02-24T08:16:09.577Z,50.94
2018-02-24T08:18:37.239Z,50.94
2018-02-24T08:21:04.857Z,50.09
2018-02-24T08:23:32.482Z,50.32
2018-02-24T08:26:00.056Z,49.56
2018-02-24T08:28:27.640Z,49.92
2018-02-24T08:30:55.365Z,49.91
2018-02-24T08:33:22.949Z,49.21
2018-02-24T08:35:50.470Z,48.45
2018-02-24T08:38:18.272Z,48.58
2018-02-24T08:40:45.797Z,48.21
2018-02-24T08:43:14.023Z,47.83
2018-02-24T08:45:41.578Z,46.73
2018-02-24T08:48:09.108Z,46.54
2018-02-24T08:50:36.702Z,45.81
2018-02-24T08:53:04.227Z,46.06
2018-02-24T08:55:32.119Z,45.30
2018-02-24T08:58:00.216Z,45.19
2018-02-24T09:00:27.636Z,43.23
2018-02-24T09:02:55.326Z,42.82
2018-02-24T09:05:22.848Z,42.81
2018-02-24T09:07:50.508Z,42.03
2018-02-24T09:10:18.089Z,40.83
2018-02-24T09:12:45.632Z,40.80
2018-02-24T09:15:13.924Z,40.22
2018-02-24T09:17:42.405Z,40.40
2018-02-24T09:20:09.922Z,39.82
2018-02-24T09:22:37.478Z,38.51
2018-02-24T09:25:05.025Z,38.61
2018-02-24T09:27:32.933Z,38.03
2018-02-24T09:30:00.450Z,38.00
2018-02-24T09:32:27.983Z,37.37
2018-02-24T09:34:55.627Z,36.82
2018-02-24T09:37:23.186Z,35.80
2018-02-24T09:39:51.052Z,29.21
2018-02-24T09:42:18.613Z,25.15
2018-02-24T09:44:46.142Z,22.63
2018-02-24T09:47:14.122Z,21.80
2018-02-24T09:49:41.798Z,20.53
2018-02-24T09:52:09.691Z,18.83
2018-02-24T09:54:37.394Z,17.25
2018-02-24T09:57:05.088Z,17.48
2018-02-24T09:59:32.857Z,17.13
2018-02-24T10:02:00.621Z,17.51
2018-02-24T10:04:28.439Z,17.39
2018-02-24T10:06:56.331Z,17.04
2018-02-24T10:09:24.120Z,16.02
2018-02-24T10:11:51.983Z,15.62
2018-02-24T10:14:19.736Z,15.91
2018-02-24T10:16:47.519Z,15.05
2018-02-24T10:19:15.379Z,15.38
2018-02-24T10:21:42.967Z,15.45
2018-02-24T10:24:10.778Z,15.05
2018-02-24T10:26:38.327Z,14.54
2018-02-24T10:29:06.127Z,14.94
2018-02-24T10:31:33.994Z,13.67
2018-02-24T10:34:01.657Z,13.14
2018-02-24T10:36:29.250Z,13.41
2018-02-24T10:38:56.877Z,13.50
2018-02-24T10:41:24.821Z,12.91
2018-02-24T10:43:52.508Z,12.49
2018-02-24T10:46:21.193Z,12.68
2018-02-24T10:48:48.832Z,12.40
2018-02-24T10:51:16.360Z,12.13
2018-02-24T10:53:43.942Z,12.58
2018-02-24T10:56:11.740Z,12.59
2018-02-24T10:58:39.337Z,12.54
2018-02-24T11:01:07.133Z,12.23
2018-02-24T11:03:34.825Z,11.85
2018-02-24T11:06:02.581Z,12.61
2018-02-24T11:08:30.161Z,11.31
2018-02-24T11:10:57.912Z,11.77
2018-02-24T11:13:25.674Z,11.54
2018-02-24T11:15:53.297Z,10.83
2018-02-24T11:18:21.100Z,11.15
2018-02-24T11:20:48.979Z,12.02
2018-02-24T11:23:16.732Z,11.38
2018-02-24T11:25:44.495Z,11.29
2018-02-24T11:28:12.062Z,12.19
2018-02-24T11:30:39.818Z,11.94
2018-02-24T11:33:07.481Z,11.48
2018-02-24T11:35:35.320Z,10.50
2018-02-24T11:38:03.214Z,12.01
2018-02-24T11:40:30.846Z,11.19
2018-02-24T11:42:58.843Z,10.85
2018-02-24T11:45:26.622Z,11.87
2018-02-24T11:47:54.370Z,10.84
2018-02-24T11:50:22.121Z,12.16
2018-02-24T11:52:49.943Z,11.99
2018-02-24T11:55:17.869Z,11.17
2018-02-24T11:57:45.742Z,10.71
2018-02-24T12:00:13.544Z,10.38
2018-02-24T12:02:41.262Z,11.64
2018-02-24T12:05:08.828Z,11.37
2018-02-24T12:07:37.036Z,11.15
2018-02-24T12:10:04.933Z,10.99
2018-02-24T12:12:32.478Z,10.86
2018-02-24T12:15:00.022Z,11.09
2018-02-24T12:17:27.641Z,11.33
2018-02-24T12:19:55.508Z,11.12
2018-02-24T12:22:23.375Z,11.38
2018-02-24T12:24:51.018Z,10.46
2018-02-24T12:27:18.901Z,10.26
2018-02-24T12:29:46.769Z,11.25
2018-02-24T12:32:14.711Z,11.52
2018-02-24T12:34:42.508Z,10.80
2018-02-24T12:37:10.368Z,10.89
2018-02-24T12:39:38.039Z,12.87
2018-02-24T12:42:05.795Z,15.39
2018-02-24T12:44:33.694Z,18.00
2018-02-24T12:47:01.630Z,20.58
2018-02-24T12:49:29.495Z,20.97
2018-02-24T12:51:57.362Z,21.50
2018-02-24T12:54:26.149Z,21.35
2018-02-24T12:56:53.915Z,21.79
2018-02-24T12:59:21.574Z,22.24
2018-02-24T13:01:49.443Z,21.65
2018-02-24T13:04:17.087Z,21.60
2018-02-24T13:06:44.606Z,21.88
2018-02-24T13:09:12.355Z,21.98
2018-02-24T13:11:40.190Z,21.82
2018-02-24T13:14:07.761Z,23.11
2018-02-24T13:16:35.331Z,21.49
2018-02-24T13:19:02.972Z,22.42
2018-02-24T13:21:30.570Z,22.51
2018-02-24T13:23:58.395Z,22.69
2018-02-24T13:26:26.226Z,22.37
2018-02-24T13:28:53.818Z,23.04
2018-02-24T13:31:21.584Z,23.12
2018-02-24T13:33:49.353Z,22.55
2018-02-24T13:36:17.114Z,22.42
2018-02-24T13:38:44.786Z,22.63
2018-02-24T13:41:12.430Z,22.96
2018-02-24T13:43:40.043Z,22.39
2018-02-24T13:46:07.950Z,23.85
2018-02-24T13:48:36.548Z,24.23
2018-02-24T13:51:04.415Z,24.50
2018-02-24T13:53:32.172Z,23.84
2018-02-24T13:55:59.901Z,23.53
2018-02-24T13:58:27.770Z,24.34
2018-02-24T14:00:55.312Z,23.48
2018-02-24T14:03:23.325Z,23.43
2018-02-24T14:05:51.003Z,24.29
2018-02-24T14:08:18.866Z,23.56
2018-02-24T14:10:47.142Z,23.41
2018-02-24T14:13:15.013Z,23.90
2018-02-24T14:15:42.747Z,23.98
2018-02-24T14:18:10.844Z,24.44
2018-02-24T14:20:38.610Z,24.68
2018-02-24T14:23:07.154Z,24.54
2018-02-24T14:25:34.833Z,25.04
2018-02-24T14:28:02.689Z,25.73
2018-02-24T14:30:30.343Z,25.44
2018-02-24T14:32:57.883Z,25.50
2018-02-24T14:35:25.705Z,25.58
2018-02-24T14:37:53.304Z,25.81
2018-02-24T14:40:20.905Z,25.64
2018-02-24T14:42:48.587Z,27.30
2018-02-24T14:45:16.250Z,28.86
2018-02-24T14:47:44.049Z,29.68
2018-02-24T14:50:11.777Z,29.91
2018-02-24T14:52:39.643Z,29.57
2018-02-24T14:55:08.841Z,29.18
2018-02-24T14:57:36.708Z,30.01
2018-02-24T15:00:04.778Z,29.75
2018-02-24T15:02:32.543Z,29.36
2018-02-24T15:05:00.450Z,30.02
2018-02-24T15:07:28.406Z,30.17
2018-02-24T15:09:56.143Z,30.61
2018-02-24T15:12:24.416Z,31.32
2018-02-24T15:14:52.388Z,31.35
2018-02-24T15:17:20.251Z,31.95
2018-02-24T15:19:49.044Z,33.43
2018-02-24T15:22:17.734Z,33.19
2018-02-24T15:24:45.694Z,33.67
2018-02-24T15:27:13.423Z,33.87
2018-02-24T15:29:41.325Z,34.42
2018-02-24T15:32:09.092Z,34.10
2018-02-24T15:34:37.057Z,34.60
2018-02-24T15:37:05.231Z,34.05
2018-02-24T15:39:33.346Z,34.38
2018-02-24T15:42:00.939Z,35.31
2018-02-24T15:44:28.627Z,35.18
2018-02-24T15:46:56.213Z,35.65
2018-02-24T15:49:24.666Z,36.22
2018-02-24T15:51:52.567Z,35.92
2018-02-24T15:54:21.967Z,36.48
2018-02-24T15:56:49.915Z,36.67
2018-02-24T15:59:18.796Z,36.58
2018-02-24T16:01:46.768Z,36.93
2018-02-24T16:04:14.537Z,35.84
2018-02-24T16:06:42.280Z,35.05
2018-02-24T16:09:10.365Z,35.09
2018-02-24T16:11:38.227Z,35.21
2018-02-24T16:14:06.198Z,35.32
2018-02-24T16:16:33.954Z,34.94
2018-02-24T16:19:02.144Z,34.82
2018-02-24T16:21:30.513Z,35.14
2018-02-24T16:23:59.300Z,35.23
2018-02-24T16:26:27.635Z,36.43
2018-02-24T16:28:55.458Z,36.74
2018-02-24T16:31:23.307Z,36.53
2018-02-24T16:33:51.175Z,36.88
2018-02-24T16:36:18.909Z,37.73
2018-02-24T16:38:46.701Z,37.33
2018-02-24T16:41:14.569Z,37.59
2018-02-24T16:43:42.428Z,37.60
2018-02-24T16:46:10.101Z,37.87
2018-02-24T16:48:37.737Z,37.81
2018-02-24T16:51:05.627Z,38.07
2018-02-24T16:53:33.262Z,38.72
2018-02-24T16:56:00.953Z,38.89
2018-02-24T16:58:28.815Z,39.29
2018-02-24T17:00:56.476Z,39.49
2018-02-24T17:03:24.548Z,39.36
2018-02-24T17:05:52.212Z,39.96
2018-02-24T17:08:20.445Z,40.00
2018-02-24T17:10:48.331Z,41.16
2018-02-24T17:13:16.629Z,42.08
2018-02-24T17:15:44.542Z,42.79
2018-02-24T17:18:12.432Z,42.43
2018-02-24T17:20:40.229Z,42.91
2018-02-24T17:23:07.992Z,43.07
2018-02-24T17:25:36.129Z,43.33
2018-02-24T17:28:04.851Z,43.53
2018-02-24T17:30:32.717Z,43.14
2018-02-24T17:33:00.584Z,43.08
2018-02-24T17:35:29.473Z,43.02
2018-02-24T17:37:57.354Z,43.31
2018-02-24T17:40:25.481Z,42.54
2018-02-24T17:42:53.379Z,43.09
2018-02-24T17:45:21.143Z,43.32
2018-02-24T17:47:48.828Z,43.08
2018-02-24T17:50:16.619Z,42.98
2018-02-24T17:52:45.665Z,42.77
2018-02-24T17:55:13.412Z,42.71
2018-02-24T17:57:41.300Z,42.44
2018-02-24T18:00:09.166Z,42.15
2018-02-24T18:02:36.926Z,41.97
2018-02-24T18:05:04.587Z,42.06
2018-02-24T18:07:32.350Z,42.55
2018-02-24T18:09:59.909Z,42.10
2018-02-24T18:12:27.666Z,41.29
2018-02-24T18:14:55.439Z,40.70
2018-02-24T18:17:23.277Z,40.86
2018-02-24T18:19:50.968Z,40.53
2018-02-24T18:22:19.363Z,39.52
2018-02-24T18:24:47.177Z,39.49
2018-02-24T18:27:15.078Z,39.26
2018-02-24T18:29:43.046Z,39.22
2018-02-24T18:32:10.706Z,39.43
2018-02-24T18:34:38.623Z,39.64
2018-02-24T18:37:06.442Z,39.55
2018-02-24T18:39:34.517Z,39.84
2018-02-24T18:42:02.377Z,39.70
2018-02-24T18:44:29.964Z,39.76
2018-02-24T18:46:57.519Z,39.96
2018-02-24T18:49:25.185Z,40.33
2018-02-24T18:51:53.026Z,40.35
2018-02-24T18:54:20.755Z,40.31
2018-02-24T18:56:48.357Z,39.37
2018-02-24T18:59:16.017Z,38.82
2018-02-24T19:01:43.979Z,38.48
2018-02-24T19:04:11.812Z,37.80
2018-02-24T19:06:40.633Z,37.73
2018-02-24T19:09:08.471Z,37.61
2018-02-24T19:11:36.469Z,37.90
2018-02-24T19:14:04.438Z,37.74
2018-02-24T19:16:32.270Z,37.82
2018-02-24T19:19:00.173Z,38.39
2018-02-24T19:21:28.003Z,38.30
2018-02-24T19:23:56.312Z,37.90
2018-02-24T19:26:24.179Z,37.79
2018-02-24T19:28:51.840Z,37.59
2018-02-24T19:31:19.809Z,37.95
2018-02-24T19:33:47.581Z,37.90
2018-02-24T19:36:15.648Z,38.12
2018-02-24T19:38:43.444Z,38.14
2018-02-24T19:41:11.269Z,37.54
2018-02-24T19:43:39.300Z,37.24
2018-02-24T19:46:07.067Z,37.06
2018-02-24T19:48:34.978Z,37.21
2018-02-24T19:51:02.945Z,36.63
2018-02-24T19:53:31.017Z,36.67
2018-02-24T19:55:58.986Z,36.75
2018-02-24T19:58:26.996Z,36.42
2018-02-24T20:00:55.027Z,36.46
2018-02-24T20:03:22.790Z,36.32
2018-02-24T20:05:50.655Z,36.63
2018-02-24T20:08:18.517Z,36.38
2018-02-24T20:10:47.259Z,36.55
2018-02-24T20:13:15.074Z,36.49
2018-02-24T20:15:42.795Z,36.19
2018-02-24T20:18:10.616Z,36.48
2018-02-24T20:20:38.775Z,36.53
2018-02-24T20:23:06.746Z,36.53
2018-02-24T20:25:34.506Z,36.21
2018-02-24T20:28:02.699Z,36.25
2018-02-24T20:30:30.458Z,36.53
2018-02-24T20:32:58.416Z,36.47
2018-02-24T20:35:26.805Z,37.41
2018-02-24T20:37:54.660Z,37.04
2018-02-24T20:40:23.448Z,37.33
2018-02-24T20:42:52.132Z,36.96
2018-02-24T20:45:20.409Z,37.50
2018-02-24T20:47:48.891Z,37.03
2018-02-24T20:50:16.777Z,36.88
2018-02-24T20:52:44.623Z,37.12
2018-02-24T20:55:12.554Z,36.85
2018-02-24T20:57:40.518Z,37.27
2018-02-24T21:00:08.324Z,37.09
2018-02-24T21:02:36.504Z,37.15
2018-02-24T21:05:04.469Z,37.47
2018-02-24T21:07:32.388Z,37.67
2018-02-24T21:10:00.405Z,37.86
2018-02-24T21:12:28.274Z,37.72
2018-02-24T21:14:56.137Z,37.45
2018-02-24T21:17:24.005Z,37.48
2018-02-24T21:19:52.587Z,37.85
2018-02-24T21:22:20.363Z,37.51
2018-02-24T21:24:48.498Z,37.58
2018-02-24T21:27:16.389Z,37.51
2018-02-24T21:29:44.167Z,37.37
2018-02-24T21:32:12.329Z,38.30
2018-02-24T21:34:40.139Z,38.33
2018-02-24T21:37:08.369Z,38.30
2018-02-24T21:39:36.302Z,38.20
2018-02-24T21:42:04.103Z,38.54
2018-02-24T21:44:31.969Z,38.29
2018-02-24T21:46:59.796Z,38.29
2018-02-24T21:49:27.701Z,38.68
2018-02-24T21:51:55.671Z,38.51
2018-02-24T21:54:23.740Z,38.44
2018-02-24T21:56:51.711Z,38.76
2018-02-24T21:59:19.577Z,38.92
2018-02-24T22:01:47.442Z,38.77
2018-02-24T22:04:15.413Z,39.09
2018-02-24T22:06:44.560Z,39.49
2018-02-24T22:09:12.578Z,39.03
2018-02-24T22:11:40.444Z,39.16
2018-02-24T22:14:08.310Z,39.51
2018-02-24T22:16:36.689Z,39.28
2018-02-24T22:19:04.555Z,39.92
2018-02-24T22:21:32.742Z,39.83
2018-02-24T22:24:00.596Z,39.89
2018-02-24T22:26:28.857Z,40.55
2018-02-24T22:28:56.605Z,39.87
2018-02-24T22:31:25.541Z,39.94
2018-02-24T22:33:53.493Z,40.94
2018-02-24T22:36:21.498Z,40.27
2018-02-24T22:38:49.288Z,40.28
2018-02-24T22:41:17.158Z,41.25
2018-02-24T22:43:44.960Z,40.86
2018-02-24T22:46:13.029Z,41.29
2018-02-24T22:48:46.327Z,40.63
2018-02-24T22:51:14.278Z,41.58
2018-02-24T22:53:42.013Z,41.23
2018-02-24T22:56:09.822Z,41.38
2018-02-24T22:58:37.440Z,41.28
2018-02-24T23:01:05.247Z,41.25
2018-02-24T23:03:33.319Z,41.61
2018-02-24T23:06:00.982Z,41.93
2018-02-24T23:08:28.759Z,42.09
2018-02-24T23:10:56.613Z,41.90
2018-02-24T23:13:24.373Z,41.70
2018-02-24T23:15:52.286Z,41.91
